createdAt,value
2023-06-18T00:01:18.390Z,85.35
2023-06-18T00:03:46.189Z,83.63
2023-06-18T00:06:13.951Z,84.24
2023-06-18T00:08:41.696Z,82.81
2023-06-18T00:11:10.399Z,83.75
2023-06-18T00:13:38.091Z,84.94
2023-06-18T00:16:06.021Z,85.04
2023-06-18T00:18:34.532Z,83.85
2023-06-18T00:21:04.378Z,85.32
2023-06-18T00:23:32.089Z,83.96
2023-06-18T00:25:59.798Z,83.48
2023-06-18T00:28:29.849Z,83.37
2023-06-18T00:30:57.950Z,83.46
2023-06-18T00:33:26.080Z,83.30
2023-06-18T00:36:00.329Z,83.41
2023-06-18T00:38:29.821Z,83.42
2023-06-18T00:40:57.831Z,85.25
2023-06-18T00:43:28.592Z,84.10
2023-06-18T00:46:00.628Z,84.61
2023-06-18T00:48:29.528Z,84.35
2023-06-18T00:50:57.377Z,83.96
2023-06-18T00:53:26.288Z,83.83
2023-06-18T00:55:54.255Z,84.11
2023-06-18T00:58:24.708Z,83.86
2023-06-18T01:00:52.743Z,83.54
2023-06-18T01:03:24.064Z,83.61
2023-06-18T01:05:57.775Z,84.31
2023-06-18T01:08:26.244Z,83.35
2023-06-18T01:11:05.695Z,84.50
2023-06-18T01:13:37.799Z,84.19
2023-06-18T01:16:07.739Z,83.82
2023-06-18T01:18:47.359Z,83.65
2023-06-18T01:21:21.763Z,85.06
2023-06-18T01:23:54.269Z,84.04
2023-06-18T01:26:23.200Z,85.07
2023-06-18T01:29:00.350Z,85.09
2023-06-18T01:31:35.587Z,85.36
2023-06-18T01:34:05.292Z,84.79
2023-06-18T01:36:38.928Z,84.62
2023-06-18T01:39:32.406Z,84.50
2023-06-18T01:42:13.736Z,84.80
2023-06-18T01:44:44.874Z,83.38
2023-06-18T01:47:15.628Z,83.17
2023-06-18T01:49:45.646Z,84.02
2023-06-18T01:52:17.146Z,84.35
2023-06-18T01:54:47.925Z,85.07
2023-06-18T01:57:16.068Z,84.86
2023-06-18T01:59:44.740Z,84.83
2023-06-18T02:02:13.504Z,85.25
2023-06-18T02:04:46.634Z,85.31
2023-06-18T02:07:15.383Z,86.15
2023-06-18T02:09:44.500Z,85.18
2023-06-18T02:12:13.120Z,84.61
2023-06-18T02:14:40.959Z,83.87
2023-06-18T02:17:08.755Z,83.90
2023-06-18T02:19:36.461Z,84.78
2023-06-18T02:22:04.463Z,85.97
2023-06-18T02:24:34.137Z,86.47
2023-06-18T02:27:02.240Z,85.73
2023-06-18T02:29:29.906Z,85.91
2023-06-18T02:31:57.599Z,85.86
2023-06-18T02:34:28.472Z,86.50
2023-06-18T02:36:56.947Z,85.70
2023-06-18T02:39:24.697Z,86.33
2023-06-18T02:41:52.403Z,86.36
2023-06-18T02:44:21.116Z,85.64
2023-06-18T02:46:48.888Z,85.73
2023-06-18T02:49:16.640Z,85.71
2023-06-18T02:51:44.442Z,85.18
2023-06-18T02:54:12.137Z,84.68
2023-06-18T02:56:40.321Z,84.13
2023-06-18T02:59:08.117Z,84.88
2023-06-18T03:01:37.507Z,84.78
2023-06-18T03:04:06.032Z,85.96
2023-06-18T03:06:34.011Z,85.91
2023-06-18T03:09:03.432Z,85.63
2023-06-18T03:11:31.643Z,85.65
2023-06-18T03:14:00.427Z,85.87
2023-06-18T03:16:28.619Z,85.65
2023-06-18T03:18:57.920Z,84.88
2023-06-18T03:21:25.870Z,85.59
2023-06-18T03:23:55.620Z,85.72
2023-06-18T03:26:24.167Z,85.86
2023-06-18T03:28:51.931Z,85.94
2023-06-18T03:31:22.651Z,85.66
2023-06-18T03:33:51.178Z,85.31
2023-06-18T03:36:18.882Z,84.53
2023-06-18T03:38:47.141Z,85.63
2023-06-18T03:41:15.257Z,85.35
2023-06-18T03:43:43.515Z,85.53
2023-06-18T03:46:11.351Z,84.95
2023-06-18T03:48:39.789Z,84.76
2023-06-18T03:51:07.770Z,85.54
2023-06-18T03:53:38.641Z,85.96
2023-06-18T03:56:08.224Z,86.04
2023-06-18T03:58:36.075Z,85.83
2023-06-18T04:01:05.214Z,85.73
2023-06-18T04:03:33.157Z,85.56
2023-06-18T04:06:00.955Z,84.73
2023-06-18T04:08:29.688Z,85.32
2023-06-18T04:10:57.722Z,85.88
2023-06-18T04:13:26.255Z,85.13
2023-06-18T04:15:54.388Z,84.34
2023-06-18T04:18:22.563Z,83.86
2023-06-18T04:20:50.291Z,83.72
2023-06-18T04:23:18.368Z,84.64
2023-06-18T04:25:46.102Z,83.83
2023-06-18T04:28:13.854Z,84.00
2023-06-18T04:30:42.168Z,84.42
2023-06-18T04:33:09.834Z,84.76
2023-06-18T04:35:38.114Z,84.49
2023-06-18T04:38:07.830Z,84.30
2023-06-18T04:40:36.395Z,84.69
2023-06-18T04:43:04.816Z,83.92
2023-06-18T04:45:38.898Z,83.68
2023-06-18T04:48:09.248Z,84.30
2023-06-18T04:50:37.355Z,83.73
2023-06-18T04:53:05.195Z,83.89
2023-06-18T04:55:32.990Z,84.19
2023-06-18T04:58:01.473Z,84.04
2023-06-18T05:00:30.052Z,84.18
2023-06-18T05:03:01.856Z,83.09
2023-06-18T05:05:30.214Z,83.38
2023-06-18T05:07:57.979Z,83.37
2023-06-18T05:10:26.410Z,83.35
2023-06-18T05:12:55.355Z,82.49
2023-06-18T05:15:23.076Z,82.51
2023-06-18T05:17:51.007Z,82.14
2023-06-18T05:20:19.174Z,81.68
2023-06-18T05:22:47.142Z,82.47
2023-06-18T05:25:15.061Z,82.82
2023-06-18T05:27:44.115Z,82.70
2023-06-18T05:30:12.357Z,83.55
2023-06-18T05:32:40.143Z,83.21
2023-06-18T05:35:11.092Z,82.18
2023-06-18T05:37:45.073Z,81.43
2023-06-18T05:40:13.909Z,81.00
2023-06-18T05:42:42.208Z,80.74
2023-06-18T05:45:11.020Z,80.66
2023-06-18T05:47:39.054Z,80.24
2023-06-18T05:50:09.742Z,80.49
2023-06-18T05:52:37.669Z,79.83
2023-06-18T05:55:07.696Z,79.72
2023-06-18T05:57:36.630Z,79.32
2023-06-18T06:00:05.548Z,79.95
2023-06-18T06:02:41.785Z,79.33
2023-06-18T06:05:11.133Z,78.61
2023-06-18T06:07:39.912Z,78.86
2023-06-18T06:10:08.970Z,79.01
2023-06-18T06:12:38.504Z,78.75
2023-06-18T06:15:07.005Z,78.13
2023-06-18T06:17:34.729Z,78.33
2023-06-18T06:20:04.051Z,77.97
2023-06-18T06:22:31.931Z,77.35
2023-06-18T06:24:59.680Z,77.26
2023-06-18T06:27:27.462Z,77.32
2023-06-18T06:29:55.283Z,77.26
2023-06-18T06:32:22.998Z,76.39
2023-06-18T06:34:50.708Z,76.72
2023-06-18T06:37:19.689Z,75.91
2023-06-18T06:39:49.390Z,76.07
2023-06-18T06:42:18.084Z,76.07
2023-06-18T06:44:48.645Z,75.82
2023-06-18T06:47:32.757Z,75.20
2023-06-18T06:50:26.702Z,74.32
2023-06-18T06:53:05.528Z,75.11
2023-06-18T06:55:33.559Z,74.66
2023-06-18T06:58:01.674Z,74.40
2023-06-18T07:00:29.777Z,74.27
2023-06-18T07:02:57.787Z,73.93
2023-06-18T07:05:26.994Z,73.83
2023-06-18T07:07:54.833Z,73.36
2023-06-18T07:10:22.858Z,73.09
2023-06-18T07:12:50.772Z,73.19
2023-06-18T07:15:18.586Z,73.49
2023-06-18T07:17:46.433Z,74.21
2023-06-18T07:20:15.178Z,72.39
2023-06-18T07:22:42.910Z,71.51
2023-06-18T07:25:10.773Z,70.24
2023-06-18T07:27:38.474Z,70.45
2023-06-18T07:30:07.029Z,71.57
2023-06-18T07:32:35.096Z,70.83
2023-06-18T07:35:02.842Z,71.16
2023-06-18T07:37:30.594Z,70.90
2023-06-18T07:39:58.390Z,69.70
2023-06-18T07:42:26.178Z,69.51
2023-06-18T07:44:54.242Z,69.39
2023-06-18T07:47:22.091Z,68.88
2023-06-18T07:49:50.203Z,68.87
2023-06-18T07:52:18.379Z,68.42
2023-06-18T07:54:46.155Z,68.19
2023-06-18T07:57:13.924Z,69.27
2023-06-18T07:59:41.674Z,68.55
2023-06-18T08:02:10.261Z,67.47
2023-06-18T08:04:38.901Z,66.61
2023-06-18T08:07:06.751Z,65.43
2023-06-18T08:09:35.058Z,66.59
2023-06-18T08:12:02.814Z,66.63
2023-06-18T08:14:30.599Z,66.71
2023-06-18T08:16:58.343Z,66.17
2023-06-18T08:19:26.216Z,67.12
2023-06-18T08:21:54.361Z,65.69
2023-06-18T08:24:23.622Z,65.51
2023-06-18T08:26:51.744Z,66.06
2023-06-18T08:29:20.420Z,63.87
2023-06-18T08:31:48.306Z,63.37
2023-06-18T08:34:15.974Z,62.44
2023-06-18T08:36:47.570Z,63.35
2023-06-18T08:39:16.035Z,63.53
2023-06-18T08:41:47.638Z,63.05
2023-06-18T08:44:15.584Z,64.79
2023-06-18T08:46:44.406Z,62.11
2023-06-18T08:49:15.921Z,63.73
2023-06-18T08:51:46.217Z,63.09
2023-06-18T08:54:16.481Z,64.94
2023-06-18T08:56:46.049Z,64.66
2023-06-18T08:59:14.689Z,63.37
2023-06-18T09:01:44.235Z,63.20
2023-06-18T09:04:13.373Z,63.10
2023-06-18T09:06:42.581Z,60.61
2023-06-18T09:09:12.009Z,60.81
2023-06-18T09:11:39.739Z,59.42
2023-06-18T09:14:07.698Z,59.87
2023-06-18T09:16:35.496Z,61.57
2023-06-18T09:19:05.587Z,60.95
2023-06-18T09:21:41.492Z,61.00
2023-06-18T09:24:12.845Z,58.33
2023-06-18T09:26:40.655Z,59.85
2023-06-18T09:29:10.620Z,61.31
2023-06-18T09:31:42.608Z,62.14
2023-06-18T09:34:17.048Z,60.77
2023-06-18T09:36:48.097Z,60.64
2023-06-18T09:39:24.577Z,60.57
2023-06-18T09:41:54.737Z,59.70
2023-06-18T09:44:24.034Z,57.41
2023-06-18T09:46:58.331Z,59.58
2023-06-18T09:49:28.250Z,58.99
2023-06-18T09:51:56.462Z,59.74
2023-06-18T09:54:37.645Z,60.43
2023-06-18T09:57:07.359Z,58.20
2023-06-18T09:59:35.720Z,57.88
2023-06-18T10:02:03.581Z,58.93
2023-06-18T10:04:33.639Z,58.44
2023-06-18T10:22:58.358Z,59.97
2023-06-18T10:25:26.710Z,59.91
2023-06-18T10:27:55.214Z,60.57
2023-06-18T10:30:23.311Z,60.77
2023-06-18T10:32:51.849Z,61.66
2023-06-18T10:35:21.539Z,63.43
2023-06-18T10:37:49.639Z,64.53
2023-06-18T10:40:17.522Z,66.07
2023-06-18T10:42:49.542Z,64.88
2023-06-18T10:45:18.730Z,66.40
2023-06-18T10:47:46.562Z,68.37
2023-06-18T10:50:17.783Z,64.97
2023-06-18T10:52:50.354Z,62.74
2023-06-18T10:55:29.998Z,63.42
2023-06-18T10:58:04.057Z,61.39
2023-06-18T11:00:39.439Z,60.71
2023-06-18T11:03:12.780Z,62.28
2023-06-18T11:05:41.495Z,63.39
2023-06-18T11:08:11.593Z,63.14
2023-06-18T11:10:42.463Z,63.03
2023-06-18T11:13:14.504Z,66.83
2023-06-18T11:15:58.547Z,73.32
2023-06-18T11:18:28.157Z,73.64
2023-06-18T11:20:56.803Z,69.91
2023-06-18T11:23:25.344Z,72.92
2023-06-18T11:25:53.646Z,72.85
2023-06-18T11:28:23.228Z,73.08
2023-06-18T11:30:57.414Z,74.55
2023-06-18T11:33:27.277Z,76.10
2023-06-18T11:36:06.649Z,79.42
2023-06-18T11:38:34.544Z,79.72
2023-06-18T11:41:02.427Z,79.94
2023-06-18T11:43:52.701Z,81.53
2023-06-18T11:46:31.560Z,80.37
2023-06-18T11:49:00.832Z,83.51
2023-06-18T11:51:30.772Z,82.51
2023-06-18T11:53:58.654Z,83.59
2023-06-18T11:56:29.438Z,79.02
2023-06-18T11:58:58.915Z,80.46
2023-06-18T12:01:31.314Z,82.49
2023-06-18T12:04:08.705Z,84.77
2023-06-18T12:06:37.834Z,85.34
2023-06-18T12:09:11.264Z,84.33
2023-06-18T12:12:06.042Z,87.75
2023-06-18T12:14:42.954Z,85.64
2023-06-18T12:17:48.020Z,86.40
2023-06-18T12:20:16.074Z,89.36
2023-06-18T12:22:45.920Z,84.73
2023-06-18T12:25:14.409Z,82.87
2023-06-18T12:27:44.253Z,87.08
2023-06-18T12:30:14.174Z,84.05
2023-06-18T12:32:42.598Z,86.90
2023-06-18T12:35:18.722Z,85.11
2023-06-18T12:37:49.656Z,87.29
2023-06-18T12:40:23.969Z,83.80
2023-06-18T12:42:52.769Z,81.75
2023-06-18T12:45:32.140Z,85.44
2023-06-18T12:48:11.591Z,79.50
2023-06-18T12:50:39.233Z,77.93
2023-06-18T12:53:22.005Z,76.91
2023-06-18T12:55:52.748Z,74.24
2023-06-18T12:58:24.956Z,75.43
2023-06-18T13:00:57.267Z,75.38
2023-06-18T13:03:27.455Z,73.13
2023-06-18T13:05:58.213Z,72.42
2023-06-18T13:08:26.216Z,71.05
2023-06-18T13:10:55.984Z,71.71
2023-06-18T13:13:24.073Z,66.48
2023-06-18T13:15:53.254Z,66.18
2023-06-18T13:18:21.773Z,64.93
2023-06-18T13:20:50.824Z,64.86
2023-06-18T13:23:19.162Z,65.44
2023-06-18T13:25:46.946Z,64.67
2023-06-18T13:28:18.095Z,64.94
2023-06-18T13:30:46.349Z,62.34
2023-06-18T13:33:14.110Z,61.19
2023-06-18T13:35:42.112Z,60.35
2023-06-18T13:38:10.855Z,58.89
2023-06-18T13:40:39.432Z,59.42
2023-06-18T13:43:07.296Z,57.04
2023-06-18T13:45:34.993Z,57.59
2023-06-18T13:48:03.258Z,55.72
2023-06-18T13:50:31.078Z,56.20
2023-06-18T13:52:58.821Z,56.52
2023-06-18T13:55:26.869Z,55.85
2023-06-18T13:57:54.774Z,56.85
2023-06-18T14:00:23.179Z,54.51
2023-06-18T14:02:51.079Z,55.80
2023-06-18T14:05:19.256Z,54.87
2023-06-18T14:07:47.787Z,54.43
2023-06-18T14:10:15.776Z,54.17
2023-06-18T14:12:43.581Z,53.66
2023-06-18T14:15:11.513Z,53.25
2023-06-18T14:17:39.680Z,52.52
2023-06-18T14:20:08.244Z,51.67
2023-06-18T14:22:36.556Z,52.35
2023-06-18T14:25:05.206Z,52.03
2023-06-18T14:27:33.402Z,53.36
2023-06-18T14:30:01.312Z,52.59
2023-06-18T14:32:30.645Z,53.81
2023-06-18T14:34:58.347Z,54.49
2023-06-18T14:37:26.482Z,52.54
2023-06-18T14:39:54.736Z,53.68
2023-06-18T14:42:22.402Z,53.81
2023-06-18T14:44:50.172Z,52.94
2023-06-18T14:47:18.021Z,49.63
2023-06-18T14:49:45.948Z,51.61
2023-06-18T14:52:13.685Z,51.96
2023-06-18T14:54:41.710Z,53.54
2023-06-18T14:57:09.525Z,53.68
2023-06-18T14:59:37.955Z,53.34
2023-06-18T15:02:19.655Z,56.54
2023-06-18T15:04:54.331Z,53.91
2023-06-18T15:07:22.327Z,57.36
2023-06-18T15:09:50.193Z,59.08
2023-06-18T15:12:18.004Z,60.12
2023-06-18T15:14:46.247Z,59.05
2023-06-18T15:17:14.217Z,61.02
2023-06-18T15:19:42.592Z,62.08
2023-06-18T15:22:10.483Z,62.54
2023-06-18T15:24:38.265Z,63.50
2023-06-18T15:27:06.244Z,62.65
2023-06-18T15:29:34.005Z,63.03
2023-06-18T15:32:01.702Z,62.02
2023-06-18T15:34:29.513Z,60.60
2023-06-18T15:36:58.187Z,60.25
2023-06-18T15:39:27.308Z,60.26
2023-06-18T15:41:54.905Z,60.52
2023-06-18T15:44:22.529Z,60.58
2023-06-18T15:46:50.182Z,61.47
2023-06-18T15:49:18.384Z,62.25
2023-06-18T15:51:46.104Z,62.37
2023-06-18T15:54:14.777Z,62.49
2023-06-18T15:56:43.610Z,61.58
2023-06-18T15:59:11.670Z,61.81
2023-06-18T16:01:41.911Z,62.20
2023-06-18T16:04:09.839Z,61.61
2023-06-18T16:06:37.618Z,61.87
2023-06-18T16:09:05.622Z,61.83
2023-06-18T16:11:34.424Z,61.81
2023-06-18T16:14:02.518Z,62.32
2023-06-18T16:16:30.459Z,62.55
2023-06-18T16:18:58.384Z,62.18
2023-06-18T16:21:28.872Z,62.83
2023-06-18T16:23:56.828Z,63.23
2023-06-18T16:26:26.356Z,63.34
2023-06-18T16:28:54.807Z,63.26
2023-06-18T16:31:23.365Z,63.30
2023-06-18T16:33:51.168Z,63.09
2023-06-18T16:36:19.020Z,62.52
2023-06-18T16:38:46.830Z,63.86
2023-06-18T16:41:14.570Z,63.53
2023-06-18T16:43:42.270Z,63.48
2023-06-18T16:46:10.319Z,64.06
2023-06-18T16:48:38.152Z,63.60
2023-06-18T16:51:05.941Z,62.85
2023-06-18T16:53:33.627Z,63.24
2023-06-18T16:56:01.364Z,63.63
2023-06-18T16:58:29.075Z,63.42
2023-06-18T17:00:57.299Z,63.95
2023-06-18T17:03:25.102Z,64.12
2023-06-18T17:05:54.882Z,64.65
2023-06-18T17:08:23.544Z,65.19
2023-06-18T17:10:51.891Z,65.46
2023-06-18T17:13:19.764Z,65.62
2023-06-18T17:15:49.066Z,65.60
2023-06-18T17:18:18.128Z,65.70
2023-06-18T17:20:45.894Z,66.43
2023-06-18T17:23:13.687Z,66.19
2023-06-18T17:25:41.364Z,67.26
2023-06-18T17:28:09.570Z,68.72
2023-06-18T17:30:37.327Z,69.76
2023-06-18T17:33:05.329Z,68.69
2023-06-18T17:35:33.116Z,68.56
2023-06-18T17:38:01.247Z,69.46
2023-06-18T17:40:28.983Z,68.31
2023-06-18T17:42:57.110Z,68.39
2023-06-18T17:45:25.108Z,69.27
2023-06-18T17:47:53.416Z,68.89
2023-06-18T17:50:21.425Z,69.08
2023-06-18T17:52:50.105Z,70.50
2023-06-18T17:55:17.992Z,69.82
2023-06-18T17:57:45.846Z,70.94
2023-06-18T18:00:14.910Z,73.60
2023-06-18T18:02:42.648Z,73.60
2023-06-18T18:05:11.069Z,72.24
2023-06-18T18:07:38.882Z,71.25
2023-06-18T18:10:07.037Z,71.44
2023-06-18T18:12:34.812Z,72.05
2023-06-18T18:15:02.603Z,71.95
2023-06-18T18:17:30.409Z,72.51
2023-06-18T18:19:58.124Z,73.00
2023-06-18T18:22:26.031Z,73.00
2023-06-18T18:24:53.859Z,73.16
2023-06-18T18:27:21.710Z,73.84
2023-06-18T18:29:49.384Z,73.08
2023-06-18T18:32:17.156Z,73.44
2023-06-18T18:34:47.672Z,72.38
2023-06-18T18:37:15.552Z,72.66
2023-06-18T18:39:44.302Z,73.50
2023-06-18T18:42:12.107Z,74.24
2023-06-18T18:44:41.320Z,73.33
2023-06-18T18:47:09.024Z,77.38
2023-06-18T18:49:36.735Z,78.09
2023-06-18T18:52:04.805Z,77.39
2023-06-18T18:54:32.816Z,76.78
2023-06-18T18:57:00.581Z,77.46
2023-06-18T18:59:28.906Z,76.52
2023-06-18T19:01:56.709Z,77.76
2023-06-18T19:04:24.392Z,75.86
2023-06-18T19:06:52.445Z,76.63
2023-06-18T19:09:20.234Z,78.25
2023-06-18T19:11:48.005Z,78.15
2023-06-18T19:14:15.747Z,77.16
2023-06-18T19:16:43.608Z,78.78
2023-06-18T19:19:11.298Z,78.58
2023-06-18T19:21:40.564Z,79.18
2023-06-18T19:24:08.261Z,77.63
2023-06-18T19:26:37.381Z,78.90
2023-06-18T19:29:07.843Z,79.06
2023-06-18T19:31:35.646Z,79.67
2023-06-18T19:34:03.481Z,79.51
2023-06-18T19:36:31.140Z,79.23
2023-06-18T19:38:58.895Z,78.03
2023-06-18T19:41:27.173Z,77.71
2023-06-18T19:43:54.951Z,80.70
2023-06-18T19:46:22.728Z,79.70
2023-06-18T19:48:50.516Z,80.75
2023-06-18T19:51:18.236Z,80.90
2023-06-18T19:53:46.053Z,79.95
2023-06-18T19:56:14.089Z,80.77
2023-06-18T19:58:42.055Z,81.55
2023-06-18T20:01:09.955Z,81.63
2023-06-18T20:03:39.622Z,81.16
2023-06-18T20:06:07.720Z,81.99
2023-06-18T20:08:35.470Z,80.05
2023-06-18T20:21:42.165Z,82.81
2023-06-18T20:24:09.894Z,82.99
2023-06-18T20:26:37.586Z,82.79
2023-06-18T20:29:05.296Z,83.50
2023-06-18T20:31:33.097Z,84.12
2023-06-18T20:34:00.833Z,83.19
2023-06-18T20:36:29.984Z,82.82
2023-06-18T20:39:00.056Z,81.99
2023-06-18T20:41:29.237Z,84.79
2023-06-18T20:43:56.993Z,85.18
2023-06-18T20:46:25.242Z,84.38
2023-06-18T20:48:52.953Z,83.20
2023-06-18T20:51:35.914Z,83.42
2023-06-18T20:54:03.715Z,84.31
2023-06-18T20:56:32.088Z,85.18
2023-06-18T20:59:00.448Z,85.56
2023-06-18T21:01:32.313Z,85.49
2023-06-18T21:04:00.230Z,85.13
2023-06-18T21:06:27.937Z,85.70
2023-06-18T21:08:55.685Z,85.45
2023-06-18T21:11:26.441Z,84.34
2023-06-18T21:13:54.256Z,84.15
2023-06-18T21:16:22.192Z,83.85
2023-06-18T21:18:49.961Z,84.64
2023-06-18T21:21:18.150Z,85.13
2023-06-18T21:23:45.867Z,85.25
2023-06-18T21:26:14.736Z,85.89
2023-06-18T21:28:42.743Z,86.05
2023-06-18T21:31:11.723Z,86.17
2023-06-18T21:33:39.452Z,85.68
2023-06-18T21:36:07.277Z,85.38
2023-06-18T21:38:35.002Z,86.54
2023-06-18T21:41:02.728Z,86.36
2023-06-18T21:43:30.420Z,86.04
2023-06-18T21:45:58.720Z,86.30
2023-06-18T21:48:27.674Z,86.39
2023-06-18T21:50:55.523Z,86.69
2023-06-18T21:53:26.082Z,86.63
2023-06-18T21:55:54.305Z,87.18
2023-06-18T21:58:23.277Z,86.49
2023-06-18T22:00:50.987Z,87.94
2023-06-18T22:03:21.145Z,88.30
2023-06-18T22:05:48.915Z,87.99
2023-06-18T22:08:24.402Z,86.80
2023-06-18T22:10:52.850Z,84.99
2023-06-18T22:13:20.640Z,85.48
2023-06-18T22:15:48.356Z,85.60
2023-06-18T22:18:16.073Z,86.65
2023-06-18T22:20:43.765Z,89.09
2023-06-18T22:23:11.511Z,87.94
2023-06-18T22:25:39.179Z,87.65
2023-06-18T22:28:06.897Z,87.55
2023-06-18T22:30:34.584Z,87.21
2023-06-18T22:33:02.282Z,87.88
2023-06-18T22:35:29.992Z,88.10
2023-06-18T22:37:57.726Z,88.02
2023-06-18T22:40:27.212Z,87.91
2023-06-18T22:42:55.749Z,87.46
2023-06-18T22:45:23.802Z,86.96
2023-06-18T22:47:51.890Z,87.50
2023-06-18T22:50:19.664Z,87.26
2023-06-18T22:52:47.491Z,87.64
2023-06-18T22:55:15.284Z,88.66
2023-06-18T22:57:45.376Z,88.41
2023-06-18T23:00:13.605Z,87.09
2023-06-18T23:02:41.521Z,87.29
2023-06-18T23:05:09.657Z,89.80
2023-06-18T23:07:37.421Z,88.65
2023-06-18T23:10:05.925Z,88.40
2023-06-18T23:12:33.752Z,87.90
2023-06-18T23:15:01.454Z,86.80
2023-06-18T23:17:30.229Z,87.76
2023-06-18T23:19:57.936Z,87.59
2023-06-18T23:22:28.098Z,88.48
2023-06-18T23:24:55.921Z,88.82
2023-06-18T23:27:23.597Z,88.37
2023-06-18T23:29:51.290Z,88.32
2023-06-18T23:32:18.927Z,87.91
2023-06-18T23:34:47.192Z,88.37
2023-06-18T23:37:15.086Z,88.28
2023-06-18T23:39:42.736Z,88.12
2023-06-18T23:42:10.379Z,88.34
2023-06-18T23:44:38.135Z,91.12
2023-06-18T23:47:06.098Z,89.88
2023-06-18T23:49:34.165Z,89.90
2023-06-18T23:52:02.003Z,88.37
2023-06-18T23:54:29.938Z,88.37
